createdAt,value
2023-11-12T00:00:35.858Z,4.10
2023-11-12T00:03:02.699Z,4.10
2023-11-12T00:05:29.537Z,4.10
2023-11-12T00:07:56.304Z,4.20
2023-11-12T00:10:23.350Z,4.20
2023-11-12T00:12:50.160Z,4.20
2023-11-12T00:15:17.044Z,4.30
2023-11-12T00:17:43.874Z,4.30
2023-11-12T00:20:13.883Z,4.30
2023-11-12T00:22:45.163Z,4.20
2023-11-12T00:25:14.342Z,4.30
2023-11-12T00:27:41.735Z,4.30
2023-11-12T00:30:09.683Z,4.40
2023-11-12T00:32:37.267Z,4.50
2023-11-12T00:35:06.159Z,4.50
2023-11-12T00:37:33.820Z,4.50
2023-11-12T00:40:00.552Z,4.40
2023-11-12T00:42:27.257Z,4.50
2023-11-12T00:44:54.941Z,4.50
2023-11-12T00:47:21.706Z,4.50
2023-11-12T00:49:49.689Z,4.50
2023-11-12T00:52:17.336Z,4.50
2023-11-12T00:54:44.037Z,4.50
2023-11-12T00:57:10.715Z,4.60
2023-11-12T00:59:37.456Z,4.60
2023-11-12T01:02:04.496Z,4.70
2023-11-12T01:04:31.355Z,4.70
2023-11-12T01:06:58.052Z,4.70
2023-11-12T01:09:24.838Z,4.70
2023-11-12T01:11:51.626Z,4.60
2023-11-12T01:14:18.390Z,4.60
2023-11-12T01:16:45.603Z,4.60
2023-11-12T01:19:12.450Z,4.70
2023-11-12T01:21:39.287Z,4.60
2023-11-12T01:24:06.637Z,4.60
2023-11-12T01:26:33.421Z,4.70
2023-11-12T01:29:00.232Z,4.70
2023-11-12T01:31:27.700Z,4.60
2023-11-12T01:33:54.394Z,4.60
2023-11-12T01:36:21.203Z,4.60
2023-11-12T01:38:47.993Z,4.60
2023-11-12T01:41:15.212Z,4.60
2023-11-12T01:43:42.754Z,4.70
2023-11-12T01:46:09.861Z,4.60
2023-11-12T01:48:37.180Z,4.60
2023-11-12T01:51:05.589Z,4.50
2023-11-12T01:53:33.997Z,4.50
2023-11-12T01:56:01.448Z,4.50
2023-11-12T01:58:29.590Z,4.50
2023-11-12T02:00:56.426Z,4.50
2023-11-12T02:03:24.040Z,4.50
2023-11-12T02:05:50.840Z,4.50
2023-11-12T02:08:19.906Z,4.50
2023-11-12T02:10:49.725Z,4.60
2023-11-12T02:13:18.115Z,4.60
2023-11-12T02:15:51.490Z,4.60
2023-11-12T02:18:18.381Z,4.60
2023-11-12T02:20:46.759Z,4.70
2023-11-12T02:23:16.226Z,4.70
2023-11-12T02:25:44.706Z,4.70
2023-11-12T02:28:13.583Z,4.70
2023-11-12T02:30:41.359Z,4.70
2023-11-12T02:33:08.487Z,4.70
2023-11-12T02:35:38.024Z,4.70
2023-11-12T02:38:08.006Z,4.70
2023-11-12T02:40:34.847Z,4.60
2023-11-12T02:43:04.313Z,4.50
2023-11-12T02:45:31.998Z,4.50
2023-11-12T02:47:58.751Z,4.40
2023-11-12T02:50:34.305Z,4.30
2023-11-12T02:53:02.408Z,4.30
2023-11-12T02:55:33.377Z,4.20
2023-11-12T02:58:00.547Z,4.20
2023-11-12T03:00:30.953Z,4.10
2023-11-12T03:03:02.825Z,4.10
2023-11-12T03:05:30.574Z,4.00
2023-11-12T03:08:00.542Z,4.00
2023-11-12T03:10:27.593Z,3.90
2023-11-12T03:12:55.051Z,3.90
2023-11-12T03:15:22.363Z,3.90
2023-11-12T03:17:49.498Z,3.80
2023-11-12T03:20:17.014Z,3.70
2023-11-12T03:22:43.905Z,3.70
2023-11-12T03:25:11.427Z,3.60
2023-11-12T03:27:38.726Z,3.60
2023-11-12T03:30:07.388Z,3.50
2023-11-12T03:32:34.216Z,3.50
2023-11-12T03:35:01.967Z,3.50
2023-11-12T03:37:28.877Z,3.40
2023-11-12T03:39:55.674Z,3.30
2023-11-12T03:42:22.993Z,3.30
2023-11-12T03:44:53.093Z,3.20
2023-11-12T03:47:20.589Z,3.20
2023-11-12T03:49:47.425Z,3.20
2023-11-12T03:52:14.177Z,3.10
2023-11-12T03:54:41.185Z,3.10
2023-11-12T03:57:08.230Z,3.00
2023-11-12T03:59:37.187Z,3.00
2023-11-12T04:02:05.428Z,2.90
2023-11-12T04:04:33.135Z,2.90
2023-11-12T04:07:00.104Z,2.80
2023-11-12T04:09:26.869Z,2.80
2023-11-12T04:11:53.625Z,2.80
2023-11-12T04:14:21.431Z,2.70
2023-11-12T04:16:48.253Z,2.80
2023-11-12T04:19:14.963Z,2.70
2023-11-12T04:21:41.747Z,2.70
2023-11-12T04:24:09.072Z,2.70
2023-11-12T04:26:35.931Z,2.60
2023-11-12T04:29:07.833Z,2.50
2023-11-12T04:31:36.502Z,2.50
2023-11-12T04:34:03.920Z,2.50
2023-11-12T04:36:31.934Z,2.40
2023-11-12T04:38:58.871Z,2.40
2023-11-12T04:41:26.652Z,2.40
2023-11-12T04:43:54.358Z,2.30
2023-11-12T04:46:24.235Z,2.30
2023-11-12T04:48:51.100Z,2.30
2023-11-12T04:51:18.119Z,2.20
2023-11-12T04:53:45.026Z,2.20
2023-11-12T04:56:12.622Z,2.20
2023-11-12T04:58:40.080Z,2.20
2023-11-12T05:01:09.780Z,2.20
2023-11-12T05:03:36.675Z,2.10
2023-11-12T05:06:05.104Z,2.10
2023-11-12T05:08:31.904Z,2.10
2023-11-12T05:10:58.691Z,2.10
2023-11-12T05:13:25.469Z,2.00
2023-11-12T05:15:52.371Z,2.10
2023-11-12T05:18:19.202Z,2.10
2023-11-12T05:20:45.962Z,2.00
2023-11-12T05:23:12.721Z,2.00
2023-11-12T05:25:39.586Z,2.00
2023-11-12T05:28:07.464Z,2.10
2023-11-12T05:30:34.851Z,2.00
2023-11-12T05:33:01.997Z,1.90
2023-11-12T05:35:28.747Z,1.90
2023-11-12T05:37:55.663Z,1.90
2023-11-12T05:40:22.649Z,1.80
2023-11-12T05:42:49.540Z,1.80
2023-11-12T05:45:16.436Z,1.70
2023-11-12T05:47:43.397Z,1.70
2023-11-12T05:50:10.165Z,1.70
2023-11-12T05:52:39.016Z,1.70
2023-11-12T05:55:06.241Z,1.60
2023-11-12T05:57:33.015Z,1.60
2023-11-12T05:59:59.853Z,1.60
2023-11-12T06:02:26.989Z,1.60
2023-11-12T06:04:53.795Z,1.80
2023-11-12T06:07:20.488Z,1.90
2023-11-12T06:09:47.680Z,1.90
2023-11-12T06:12:14.592Z,1.90
2023-11-12T06:14:41.296Z,1.90
2023-11-12T06:17:08.079Z,1.80
2023-11-12T06:19:34.867Z,1.80
2023-11-12T06:22:02.453Z,1.90
2023-11-12T06:24:29.670Z,1.80
2023-11-12T06:26:56.457Z,1.80
2023-11-12T06:29:24.975Z,1.80
2023-11-12T06:31:52.399Z,1.80
2023-11-12T06:34:19.948Z,1.80
2023-11-12T06:36:46.977Z,1.90
2023-11-12T06:39:17.130Z,1.90
2023-11-12T06:41:43.924Z,1.90
2023-11-12T06:44:13.364Z,2.00
2023-11-12T06:46:46.995Z,2.00
2023-11-12T06:49:14.268Z,2.10
2023-11-12T06:51:41.081Z,2.10
2023-11-12T06:54:09.773Z,2.10
2023-11-12T06:56:36.550Z,2.10
2023-11-12T06:59:03.627Z,2.20
2023-11-12T07:01:30.898Z,2.30
2023-11-12T07:03:57.935Z,2.40
2023-11-12T07:06:24.845Z,2.40
2023-11-12T07:08:51.602Z,2.40
2023-11-12T07:11:18.414Z,2.30
2023-11-12T07:13:45.116Z,2.40
2023-11-12T07:16:19.189Z,2.50
2023-11-12T07:18:53.730Z,2.40
2023-11-12T07:21:32.337Z,2.40
2023-11-12T07:24:00.348Z,2.40
2023-11-12T07:26:28.356Z,2.50
2023-11-12T07:28:55.673Z,2.40
2023-11-12T07:31:25.752Z,2.50
2023-11-12T07:33:53.244Z,2.50
2023-11-12T07:36:22.144Z,2.50
2023-11-12T07:38:49.098Z,2.50
2023-11-12T07:41:15.871Z,2.60
2023-11-12T07:43:42.833Z,2.60
2023-11-12T07:46:09.706Z,2.70
2023-11-12T07:48:37.356Z,2.80
2023-11-12T07:51:04.346Z,2.90
2023-11-12T07:53:31.102Z,3.10
2023-11-12T07:55:57.872Z,3.10
2023-11-12T07:58:24.879Z,3.20
2023-11-12T08:00:51.829Z,3.20
2023-11-12T08:03:19.270Z,3.30
2023-11-12T08:05:47.085Z,3.40
2023-11-12T08:08:13.837Z,3.40
2023-11-12T08:10:40.714Z,3.50
2023-11-12T08:13:07.503Z,3.50
2023-11-12T08:15:34.366Z,3.50
2023-11-12T08:18:01.146Z,3.50
2023-11-12T08:20:27.836Z,3.40
2023-11-12T08:22:54.589Z,3.50
2023-11-12T08:25:22.242Z,3.60
2023-11-12T08:27:49.006Z,3.60
2023-11-12T08:30:15.949Z,3.70
2023-11-12T08:32:42.773Z,3.70
2023-11-12T08:35:09.546Z,3.90
2023-11-12T08:37:37.388Z,4.00
2023-11-12T08:40:05.917Z,4.20
2023-11-12T08:42:32.619Z,4.30
2023-11-12T08:44:59.552Z,4.30
2023-11-12T08:47:26.538Z,4.30
2023-11-12T08:49:53.377Z,4.50
2023-11-12T08:52:20.064Z,4.60
2023-11-12T08:54:47.344Z,4.80
2023-11-12T08:57:14.065Z,4.80
2023-11-12T08:59:41.069Z,4.80
2023-11-12T09:02:08.350Z,4.80
2023-11-12T09:04:35.602Z,4.70
2023-11-12T09:07:03.176Z,4.70
2023-11-12T09:09:29.920Z,4.60
2023-11-12T09:11:59.632Z,4.60
2023-11-12T09:14:26.818Z,4.60
2023-11-12T09:16:53.622Z,4.60
2023-11-12T09:19:20.512Z,4.70
2023-11-12T09:21:47.377Z,4.90
2023-11-12T09:24:14.415Z,5.00
2023-11-12T09:26:41.179Z,5.10
2023-11-12T09:29:08.262Z,5.00
2023-11-12T09:31:35.072Z,5.10
2023-11-12T09:34:02.082Z,5.00
2023-11-12T09:36:29.068Z,5.00
2023-11-12T09:38:56.254Z,5.10
2023-11-12T09:41:26.477Z,5.30
2023-11-12T09:43:54.308Z,5.40
2023-11-12T09:46:24.407Z,5.30
2023-11-12T09:48:53.354Z,5.20
2023-11-12T09:51:21.844Z,5.10
2023-11-12T09:53:51.830Z,5.20
2023-11-12T09:56:23.746Z,5.10
2023-11-12T09:58:50.733Z,5.20
2023-11-12T10:01:21.318Z,5.20
2023-11-12T10:03:49.840Z,5.20
2023-11-12T10:06:21.708Z,5.40
2023-11-12T10:08:49.953Z,5.40
2023-11-12T10:11:29.567Z,5.40
2023-11-12T10:13:57.481Z,5.30
2023-11-12T10:16:31.839Z,5.20
2023-11-12T10:19:10.368Z,5.40
2023-11-12T10:21:44.431Z,5.20
2023-11-12T10:24:11.347Z,5.30
2023-11-12T10:26:39.780Z,5.40
2023-11-12T10:29:09.233Z,5.40
2023-11-12T10:31:39.912Z,5.50
2023-11-12T10:34:06.770Z,5.60
2023-11-12T10:36:33.562Z,5.70
2023-11-12T10:39:05.102Z,5.70
2023-11-12T10:41:36.313Z,5.70
2023-11-12T10:44:04.408Z,5.60
2023-11-12T10:46:35.662Z,5.40
2023-11-12T10:49:04.174Z,5.40
2023-11-12T10:51:31.637Z,5.60
2023-11-12T10:53:59.859Z,5.60
2023-11-12T10:56:28.398Z,5.80
2023-11-12T10:58:56.855Z,6.00
2023-11-12T11:01:24.580Z,6.20
2023-11-12T11:03:53.571Z,6.00
2023-11-12T11:06:22.235Z,6.00
2023-11-12T11:08:48.943Z,6.20
2023-11-12T11:11:15.965Z,6.30
2023-11-12T11:13:42.789Z,6.50
2023-11-12T11:16:10.011Z,6.60
2023-11-12T11:18:36.754Z,6.50
2023-11-12T11:21:25.254Z,6.40
2023-11-12T11:23:55.231Z,6.50
2023-11-12T11:26:28.706Z,6.70
2023-11-12T11:29:11.422Z,6.70
2023-11-12T11:31:46.958Z,6.70
2023-11-12T11:34:14.448Z,6.60
2023-11-12T11:36:56.835Z,6.70
2023-11-12T11:39:28.089Z,6.80
2023-11-12T11:41:57.315Z,6.80
2023-11-12T11:44:39.486Z,7.00
2023-11-12T11:47:17.702Z,7.00
2023-11-12T11:49:57.783Z,7.10
2023-11-12T11:52:25.840Z,7.20
2023-11-12T11:55:06.029Z,7.30
2023-11-12T11:57:33.149Z,7.40
2023-11-12T12:00:00.926Z,7.60
2023-11-12T12:02:28.278Z,7.40
2023-11-12T12:04:58.909Z,7.70
2023-11-12T12:07:26.647Z,7.60
2023-11-12T12:09:57.606Z,7.40
2023-11-12T12:12:26.316Z,7.40
2023-11-12T12:14:55.201Z,7.50
2023-11-12T12:17:22.119Z,7.70
2023-11-12T12:19:55.713Z,7.90
2023-11-12T12:22:29.197Z,8.00
2023-11-12T12:24:58.530Z,8.00
2023-11-12T12:27:26.089Z,7.90
2023-11-12T12:29:54.123Z,8.10
2023-11-12T12:32:22.201Z,8.10
2023-11-12T12:35:00.986Z,8.10
2023-11-12T12:37:32.297Z,8.10
2023-11-12T12:40:17.996Z,8.30
2023-11-12T12:42:45.330Z,8.20
2023-11-12T12:45:17.308Z,8.10
2023-11-12T12:47:45.206Z,8.00
2023-11-12T12:50:17.248Z,7.90
2023-11-12T12:52:46.341Z,7.80
2023-11-12T12:55:17.214Z,7.70
2023-11-12T12:57:44.575Z,7.70
2023-11-12T13:00:13.059Z,7.80
2023-11-12T13:02:41.113Z,7.70
2023-11-12T13:05:20.983Z,7.60
2023-11-12T13:07:54.594Z,7.70
2023-11-12T13:10:23.887Z,7.70
2023-11-12T13:12:57.173Z,7.60
2023-11-12T13:15:26.537Z,7.60
2023-11-12T13:17:53.759Z,7.70
2023-11-12T13:20:26.008Z,7.60
2023-11-12T13:22:53.799Z,7.70
2023-11-12T13:25:20.484Z,7.90
2023-11-12T13:27:47.351Z,7.90
2023-11-12T13:30:15.216Z,8.00
2023-11-12T13:32:42.365Z,8.00
2023-11-12T13:35:10.035Z,7.80
2023-11-12T13:37:37.229Z,7.70
2023-11-12T13:40:10.746Z,7.70
2023-11-12T13:42:37.690Z,7.70
2023-11-12T13:45:05.226Z,7.70
2023-11-12T13:47:33.139Z,7.70
2023-11-12T13:50:00.525Z,7.70
2023-11-12T13:52:28.430Z,7.70
2023-11-12T13:54:57.254Z,7.60
2023-11-12T13:57:24.027Z,7.60
2023-11-12T13:59:50.835Z,7.50
2023-11-12T14:02:18.019Z,7.50
2023-11-12T14:04:45.380Z,7.50
2023-11-12T14:07:12.196Z,7.50
2023-11-12T14:09:39.539Z,7.50
2023-11-12T14:12:08.096Z,7.40
2023-11-12T14:14:35.702Z,7.40
2023-11-12T14:17:09.570Z,7.20
2023-11-12T14:19:37.235Z,7.10
2023-11-12T14:22:05.414Z,7.00
2023-11-12T14:24:32.451Z,7.00
2023-11-12T14:27:01.984Z,7.00
2023-11-12T14:29:28.800Z,6.90
2023-11-12T14:31:55.498Z,6.90
2023-11-12T14:34:24.403Z,6.90
2023-11-12T14:36:51.541Z,6.90
2023-11-12T14:39:24.136Z,6.70
2023-11-12T14:41:53.463Z,6.70
2023-11-12T14:44:22.112Z,6.70
2023-11-12T14:46:49.771Z,6.70
2023-11-12T14:49:17.004Z,6.70
2023-11-12T14:51:47.426Z,6.60
2023-11-12T14:54:21.191Z,6.50
2023-11-12T14:56:53.607Z,6.50
2023-11-12T14:59:20.758Z,6.40
2023-11-12T15:01:48.145Z,6.30
2023-11-12T15:04:16.523Z,6.20
2023-11-12T15:06:44.265Z,6.10
2023-11-12T15:09:12.018Z,6.10
2023-11-12T15:11:41.655Z,6.10
2023-11-12T15:14:09.178Z,6.10
2023-11-12T15:16:36.075Z,6.00
2023-11-12T15:19:02.993Z,6.00
2023-11-12T15:21:29.905Z,5.90
2023-11-12T15:23:56.666Z,5.90
2023-11-12T15:26:23.385Z,5.90
2023-11-12T15:28:51.846Z,5.80
2023-11-12T15:31:19.442Z,5.70
2023-11-12T15:33:46.513Z,5.70
2023-11-12T15:36:13.566Z,5.70
2023-11-12T15:38:41.207Z,5.60
2023-11-12T15:41:08.021Z,5.70
2023-11-12T15:43:34.834Z,5.70
2023-11-12T15:46:04.271Z,5.60
2023-11-12T15:48:32.036Z,5.60
2023-11-12T15:50:58.993Z,5.50
2023-11-12T15:53:30.582Z,5.40
2023-11-12T15:56:00.028Z,5.40
2023-11-12T15:58:27.577Z,5.40
2023-11-12T16:00:54.509Z,5.40
2023-11-12T16:03:21.633Z,5.40
2023-11-12T16:05:48.617Z,5.30
2023-11-12T16:08:15.412Z,5.30
2023-11-12T16:10:42.270Z,5.30
2023-11-12T16:13:09.588Z,5.20
2023-11-12T16:15:37.163Z,5.20
2023-11-12T16:18:04.357Z,5.20
2023-11-12T16:20:32.953Z,5.20
2023-11-12T16:23:00.105Z,5.10
2023-11-12T16:25:27.875Z,5.20
2023-11-12T16:27:55.140Z,5.10
2023-11-12T16:30:24.995Z,5.10
2023-11-12T16:32:51.914Z,5.10
2023-11-12T16:35:20.729Z,5.10
2023-11-12T16:37:51.374Z,5.00
2023-11-12T16:40:19.386Z,5.00
2023-11-12T16:42:49.278Z,5.00
2023-11-12T16:45:16.548Z,4.80
2023-11-12T16:47:43.603Z,4.80
2023-11-12T16:50:12.060Z,4.70
2023-11-12T16:52:38.985Z,4.70
2023-11-12T16:55:06.193Z,4.70
2023-11-12T16:57:33.297Z,4.70
2023-11-12T17:00:00.381Z,4.60
2023-11-12T17:02:29.075Z,4.60
2023-11-12T17:04:56.474Z,4.50
2023-11-12T17:07:23.366Z,4.50
2023-11-12T17:09:50.357Z,4.40
2023-11-12T17:12:17.777Z,4.30
2023-11-12T17:14:45.497Z,4.30
2023-11-12T17:17:12.566Z,4.20
2023-11-12T17:19:39.436Z,4.20
2023-11-12T17:22:06.340Z,4.10
2023-11-12T17:24:34.185Z,3.90
2023-11-12T17:27:01.349Z,3.80
2023-11-12T17:29:28.273Z,3.80
2023-11-12T17:31:55.150Z,3.70
2023-11-12T17:34:21.930Z,3.70
2023-11-12T17:36:49.543Z,3.50
2023-11-12T17:39:18.141Z,3.50
2023-11-12T17:41:48.385Z,3.10
2023-11-12T17:44:16.170Z,3.10
2023-11-12T17:46:46.459Z,2.90
2023-11-12T17:49:14.055Z,2.80
2023-11-12T17:51:42.522Z,2.60
2023-11-12T17:54:09.429Z,2.60
2023-11-12T17:56:36.495Z,2.60
2023-11-12T17:59:03.350Z,2.50
2023-11-12T18:01:30.367Z,2.40
2023-11-12T18:03:59.398Z,2.40
2023-11-12T18:06:26.787Z,2.30
2023-11-12T18:08:53.536Z,2.20
2023-11-12T18:11:20.774Z,2.30
2023-11-12T18:13:47.774Z,2.30
2023-11-12T18:16:14.897Z,2.20
2023-11-12T18:18:43.457Z,2.30
2023-11-12T18:21:13.305Z,2.30
2023-11-12T18:23:40.571Z,2.20
2023-11-12T18:26:09.906Z,2.20
2023-11-12T18:28:38.379Z,2.20
2023-11-12T18:31:06.279Z,2.30
2023-11-12T18:33:33.701Z,2.40
2023-11-12T18:36:00.544Z,2.30
2023-11-12T18:38:28.351Z,2.20
2023-11-12T18:40:55.271Z,2.30
2023-11-12T18:43:23.117Z,2.30
2023-11-12T18:45:52.068Z,2.40
2023-11-12T18:48:18.946Z,2.40
2023-11-12T18:50:49.547Z,2.30
2023-11-12T18:53:18.082Z,2.30
2023-11-12T18:55:44.891Z,2.40
2023-11-12T18:58:17.144Z,2.40
2023-11-12T19:00:45.320Z,2.40
2023-11-12T19:03:12.346Z,2.50
2023-11-12T19:05:40.122Z,2.50
2023-11-12T19:08:10.399Z,2.60
2023-11-12T19:10:38.339Z,2.60
2023-11-12T19:13:05.201Z,2.70
2023-11-12T19:15:32.288Z,2.60
2023-11-12T19:17:59.100Z,2.60
2023-11-12T19:20:26.304Z,2.60
2023-11-12T19:22:54.616Z,2.70
2023-11-12T19:25:21.395Z,2.70
2023-11-12T19:27:48.365Z,2.80
2023-11-12T19:30:16.659Z,2.90
2023-11-12T19:32:45.165Z,2.90
2023-11-12T19:35:13.748Z,2.90
2023-11-12T19:37:42.231Z,3.00
2023-11-12T19:40:10.180Z,3.10
2023-11-12T19:42:37.463Z,3.00
2023-11-12T19:45:07.381Z,3.00
2023-11-12T19:47:34.405Z,3.00
2023-11-12T19:50:01.260Z,3.10
2023-11-12T19:52:27.965Z,3.10
2023-11-12T19:54:54.747Z,3.10
2023-11-12T19:57:21.560Z,3.00
2023-11-12T19:59:48.355Z,3.00
2023-11-12T20:02:16.128Z,3.10
2023-11-12T20:04:43.011Z,3.00
2023-11-12T20:07:09.812Z,3.10
2023-11-12T20:09:38.088Z,3.00
2023-11-12T20:12:08.715Z,3.00
2023-11-12T20:14:37.769Z,3.00
2023-11-12T20:17:04.919Z,2.90
2023-11-12T20:19:31.818Z,3.00
2023-11-12T20:22:00.149Z,3.00
2023-11-12T20:24:27.125Z,3.00
2023-11-12T20:26:55.434Z,3.00
2023-11-12T20:29:22.582Z,2.90
2023-11-12T20:31:54.639Z,2.90
2023-11-12T20:34:23.224Z,2.90
2023-11-12T20:36:51.599Z,3.00
2023-11-12T20:39:18.689Z,3.00
2023-11-12T20:41:46.534Z,3.00
2023-11-12T20:44:14.382Z,3.00
2023-11-12T20:46:45.265Z,3.00
2023-11-12T20:49:17.600Z,3.00
2023-11-12T20:51:45.997Z,3.00
2023-11-12T20:54:19.300Z,3.00
2023-11-12T20:56:47.082Z,3.10
2023-11-12T20:59:14.248Z,3.10
2023-11-12T21:01:41.285Z,3.20
2023-11-12T21:04:12.326Z,3.20
2023-11-12T21:06:41.420Z,3.20
2023-11-12T21:09:09.765Z,3.20
2023-11-12T21:11:41.077Z,3.30
2023-11-12T21:14:12.946Z,3.30
2023-11-12T21:16:41.193Z,3.30
2023-11-12T21:19:09.840Z,3.30
2023-11-12T21:21:38.855Z,3.20
2023-11-12T21:24:06.783Z,3.20
2023-11-12T21:26:34.849Z,3.10
2023-11-12T21:29:01.699Z,3.10
2023-11-12T21:31:28.541Z,3.10
2023-11-12T21:33:55.641Z,3.10
2023-11-12T21:36:23.465Z,3.10
2023-11-12T21:38:50.462Z,3.20
2023-11-12T21:41:18.683Z,3.10
2023-11-12T21:43:45.607Z,3.20
2023-11-12T21:46:16.273Z,3.30
2023-11-12T21:48:43.206Z,3.20
2023-11-12T21:51:10.253Z,3.20
2023-11-12T21:53:37.646Z,3.30
2023-11-12T21:56:05.587Z,3.30
2023-11-12T21:58:33.096Z,3.30
2023-11-12T22:01:02.088Z,3.30
2023-11-12T22:03:29.742Z,3.40
2023-11-12T22:05:56.587Z,3.40
2023-11-12T22:08:23.482Z,3.50
2023-11-12T22:10:50.842Z,3.50
2023-11-12T22:13:19.278Z,3.50
2023-11-12T22:15:47.166Z,3.60
2023-11-12T22:18:14.218Z,3.60
2023-11-12T22:20:42.150Z,3.60
2023-11-12T22:23:11.825Z,3.70
2023-11-12T22:25:39.638Z,3.80
2023-11-12T22:28:07.142Z,3.80
2023-11-12T22:30:34.053Z,3.80
2023-11-12T22:33:00.926Z,3.90
2023-11-12T22:35:27.755Z,4.10
2023-11-12T22:37:54.541Z,4.10
2023-11-12T22:40:21.743Z,4.20
2023-11-12T22:42:48.760Z,4.30
2023-11-12T22:45:16.476Z,4.40
2023-11-12T22:47:43.543Z,4.50
2023-11-12T22:50:13.139Z,4.40
2023-11-12T22:52:40.156Z,4.50
2023-11-12T22:55:07.733Z,4.60
2023-11-12T22:57:36.099Z,4.60
2023-11-12T23:00:15.630Z,4.60
2023-11-12T23:02:45.601Z,4.70
2023-11-12T23:05:15.920Z,4.60
2023-11-12T23:07:43.314Z,4.70
2023-11-12T23:10:12.111Z,4.70
2023-11-12T23:12:38.989Z,4.70
2023-11-12T23:15:06.928Z,4.70
2023-11-12T23:17:34.006Z,4.70
2023-11-12T23:20:00.829Z,4.80
2023-11-12T23:22:27.569Z,4.80
2023-11-12T23:24:54.287Z,4.80
2023-11-12T23:27:21.024Z,4.80
2023-11-12T23:29:50.013Z,4.80
2023-11-12T23:32:17.452Z,4.90
2023-11-12T23:34:45.222Z,4.90
2023-11-12T23:37:12.029Z,5.00
2023-11-12T23:39:44.179Z,5.00
2023-11-12T23:42:11.399Z,5.00
2023-11-12T23:44:38.193Z,5.00
2023-11-12T23:47:05.961Z,5.10
2023-11-12T23:49:33.466Z,5.20
2023-11-12T23:52:00.338Z,5.20
2023-11-12T23:54:27.144Z,5.20
2023-11-12T23:56:55.062Z,5.30
2023-11-12T23:59:21.819Z,5.30
